»·PEaware :: HAL44 PHNL-KSJC

HAL44 :: PHNL-KSJC

FLIGHT INFORMATION

Flight Status: Arrived
Operator:
Hawaiian Airlines
More flights by this operator :: More flights under this callsign
Pilot: Justin U. (116)
Aircraft: BOEING 767-300
(B763)
More flights by this aircraft type
Origin: PHNL Honolulu Intl
United States
Destination: KSJC Mineta San Jose Intl
United States
More flights between these airports :: More routes between these airports
Route: +PIRAT BRINY
File this flight plan on PilotEdge
Remarks: SEL / FPDH / V /
Altitude:
(Current/Filed)
37,000ft
Speed:
(Current/Filed)
462kts
Departed: 13-Apr-12 07:47 PM
Arrived: 13-Apr-12 08:41 PM
Distance/Time
Traveled:
2097nm/0:54
Distance/Time
To Go:
Arrived

Flight Plot

Page will automatically refresh every two minutes.

Flight plan parsing failed; only flown route is shown


Map Options




Map Legend


Flown Route
Filed Route
Departure Airport
Arrival Airport
Navaid (VOR, NDB)
Fix

Horizontal Profiles

Position Reports

Time Latitude Longitude Heading Altitude Ground
Speed
13-Apr-12 19:45 34.842037 -129.049017 63 37043ft 497kts
13-Apr-12 19:46 34.892639 -128.891275 62 37031ft 497kts
13-Apr-12 19:47 34.941628 -128.733140 63 37038ft 498kts
13-Apr-12 19:48 34.991726 -128.575570 62 37044ft 497kts
13-Apr-12 19:50 35.088418 -128.258026 64 37047ft 498kts
13-Apr-12 19:51 35.129409 -128.125921 63 37041ft 497kts
13-Apr-12 19:52 35.178283 -127.967269 63 37041ft 498kts
13-Apr-12 19:53 35.226184 -127.806919 62 37038ft 505kts
13-Apr-12 19:54 35.275811 -127.646428 61 37032ft 502kts
13-Apr-12 19:55 35.332048 -127.458467 62 37030ft 504kts
13-Apr-12 19:56 35.371702 -127.323532 61 37031ft 503kts
13-Apr-12 19:57 35.420976 -127.162791 61 37031ft 503kts
13-Apr-12 19:58 35.468918 -127.001045 62 37028ft 504kts
13-Apr-12 19:59 35.515896 -126.838580 62 37031ft 504kts
13-Apr-12 20:00 35.563640 -126.676506 62 37027ft 504kts
13-Apr-12 20:01 35.610118 -126.513595 62 37029ft 504kts
13-Apr-12 20:02 35.657998 -126.351449 62 37020ft 504kts
13-Apr-12 20:03 35.704544 -126.188384 63 37021ft 504kts
13-Apr-12 20:04 35.753219 -126.026727 59 37013ft 500kts
13-Apr-12 20:05 35.808623 -125.869534 59 37038ft 499kts
13-Apr-12 20:06 35.863620 -125.711826 59 37033ft 500kts
13-Apr-12 20:07 35.916687 -125.552726 60 37014ft 501kts
13-Apr-12 20:08 35.986822 -125.408434 46 37011ft 486kts
13-Apr-12 20:09 36.062270 -125.268571 48 37003ft 489kts
13-Apr-12 20:10 36.135180 -125.125931 49 37013ft 490kts
13-Apr-12 20:11 36.208981 -124.980299 49 37007ft 490kts
13-Apr-12 20:12 36.281348 -124.836862 49 37007ft 489kts
13-Apr-12 20:13 36.354999 -124.694492 49 37003ft 490kts
13-Apr-12 20:14 36.439979 -124.527491 50 37006ft 487kts
13-Apr-12 20:15 36.498716 -124.409094 50 37020ft 481kts
13-Apr-12 20:16 36.570072 -124.267589 49 37014ft 482kts
13-Apr-12 20:17 36.640548 -124.126885 50 36110ft 475kts
13-Apr-12 20:18 36.713559 -123.978510 49 33794ft 517kts
13-Apr-12 20:19 36.786690 -123.828506 49 35235ft 497kts
13-Apr-12 20:20 36.858323 -123.685750 48 31057ft 478kts
13-Apr-12 20:21 36.925827 -123.546828 47 26740ft 453kts
13-Apr-12 20:22 36.987605 -123.420053 48 22921ft 425kts
13-Apr-12 20:23 37.048364 -123.297523 49 20162ft 409kts
13-Apr-12 20:24 37.106517 -123.178934 50 17489ft 388kts
13-Apr-12 20:25 37.163118 -123.065390 52 15206ft 375kts
13-Apr-12 20:26 37.214335 -122.954030 49 13213ft 358kts
13-Apr-12 20:27 37.263836 -122.849107 59 12023ft 337kts
13-Apr-12 20:28 37.269557 -122.729745 91 11994ft 362kts
13-Apr-12 20:29 37.252132 -122.604970 93 11986ft 363kts
13-Apr-12 20:30 37.234933 -122.488014 93 11048ft 323kts
13-Apr-12 20:31 37.220795 -122.377008 88 9581ft 319kts
13-Apr-12 20:32 37.218610 -122.269573 85 8190ft 299kts
13-Apr-12 20:33 37.217006 -122.166171 85 7897ft 296kts
13-Apr-12 20:34 37.216215 -122.079585 86 6661ft 296kts
13-Apr-12 20:35 37.221246 -121.963442 85 4900ft 270kts
13-Apr-12 20:36 37.243256 -121.883709 52 3930ft 214kts
13-Apr-12 20:37 37.278055 -121.851180 4 2594ft 185kts
13-Apr-12 20:39 37.347806 -121.913651 314 328ft 149kts
13-Apr-12 20:40 37.367796 -121.933470 49 76ft 21kts
13-Apr-12 20:41 37.368520 -121.930452 137 75ft 19kts
13-Apr-12 20:42 37.368604 -121.929593 47 76ft 0kts
13-Apr-12 20:43 37.368604 -121.929592 47 76ft 0kts

Navigation Log

Ident Type
Flight plan parsing failed, navigation log unavailable